Independence of the Seas — C6WW4 — position and weather

sailwx.info

Track history (hours):
 
Tides and Currents Weather Stations Pressure Air Temp Water Temp Dewpoint Dewpoint Depression Visibility Wind Speed Wind Dir Waves Ship Positions

Independence of the Seas

Last reported at 2015-May-27 13:27 UTC. Time now 2015-May-27 19:59 UTC.
Position N 18°00' W 063°03'.

Length 339 m; draft 8.8 m.

Type: Passenger vessel. MMSI: 309374000.

Date/timePositionNaut miles runAvg speedWind from/ knotsBaromVisibWave heightAir tempDewpointWater temp
2015-May-27 13:27N 18°00' W 063°03'1112.7
2015-May-27 12:33N 18°01' W 063°15'1817.9
2015-May-27 11:33N 18°03' W 063°34'  
2015-May-24 21:26N 26°08' W 079°45'1719.0
2015-May-24 20:33N 26°06' W 080°04'3 3.1
2015-May-24 19:27N 26°05' W 080°07'0 0.0
2015-May-24 18:27N 26°05' W 080°07'0 0.0
2015-May-24 17:30N 26°05' W 080°07'0 0.0
2015-May-24 16:30N 26°05' W 080°07'0 0.0
2015-May-24 15:30N 26°05' W 080°07'0 0.0
2015-May-24 14:33N 26°05' W 080°07'0 0.0
2015-May-24 13:33N 26°05' W 080°07'0 0.0
2015-May-24 12:33N 26°05' W 080°07'0 0.0
2015-May-24 11:33N 26°05' W 080°07'0 0.5
2015-May-24 10:33N 26°06' W 080°07'8 8.2
2015-May-24 09:34N 26°01' W 079°60'1817.5
2015-May-24 08:33N 25°43' W 079°58'49814.9
2015-May-22 23:13N 20°30' W 086°59'1 0.2
2015-May-22 15:26N 20°29' W 086°59'0 0.1
2015-May-22 13:32N 20°29' W 086°59'  
2015-May-17 22:05N 25°51' W 079°59'713.6
2015-May-17 21:32N 25°58' W 080°01'9 8.9
2015-May-17 20:33N 26°05' W 080°07'0 0.1
2015-May-17 19:33N 26°05' W 080°07'0 0.0
2015-May-17 18:33N 26°05' W 080°07'0 0.0
2015-May-17 17:33N 26°05' W 080°07'0 0.0
2015-May-17 16:33N 26°05' W 080°07'0 0.0
2015-May-17 15:33N 26°05' W 080°07'0 0.0
2015-May-17 14:33N 26°05' W 080°07'0 0.0
2015-May-17 13:33N 26°05' W 080°07'  
Track history (hours):
 
Tides and Currents Weather Stations Pressure Air Temp Water Temp Dewpoint Dewpoint Depression Visibility Wind Speed Wind Dir Waves Ship Positions

Independence of the Seas

Last reported at 2015-May-27 13:27 UTC. Time now 2015-May-27 19:59 UTC.
Position N 18°00' W 063°03'.

Length 339 m; draft 8.8 m.

Type: Passenger vessel. MMSI: 309374000.

Date/timePositionNaut miles runAvg speedWind from/ knotsBaromVisibWave heightAir tempDewpointWater temp
2015-May-27 13:27N 18°00' W 063°03'1112.7
2015-May-27 12:33N 18°01' W 063°15'1817.9
2015-May-27 11:33N 18°03' W 063°34'  
2015-May-24 21:26N 26°08' W 079°45'1719.0
2015-May-24 20:33N 26°06' W 080°04'3 3.1
2015-May-24 19:27N 26°05' W 080°07'0 0.0
2015-May-24 18:27N 26°05' W 080°07'0 0.0
2015-May-24 17:30N 26°05' W 080°07'0 0.0
2015-May-24 16:30N 26°05' W 080°07'0 0.0
2015-May-24 15:30N 26°05' W 080°07'0 0.0
2015-May-24 14:33N 26°05' W 080°07'0 0.0
2015-May-24 13:33N 26°05' W 080°07'0 0.0
2015-May-24 12:33N 26°05' W 080°07'0 0.0
2015-May-24 11:33N 26°05' W 080°07'0 0.5
2015-May-24 10:33N 26°06' W 080°07'8 8.2
2015-May-24 09:34N 26°01' W 079°60'1817.5
2015-May-24 08:33N 25°43' W 079°58'49814.9
2015-May-22 23:13N 20°30' W 086°59'1 0.2
2015-May-22 15:26N 20°29' W 086°59'0 0.1
2015-May-22 13:32N 20°29' W 086°59'  
2015-May-17 22:05N 25°51' W 079°59'713.6
2015-May-17 21:32N 25°58' W 080°01'9 8.9
2015-May-17 20:33N 26°05' W 080°07'0 0.1
2015-May-17 19:33N 26°05' W 080°07'0 0.0
2015-May-17 18:33N 26°05' W 080°07'0 0.0
2015-May-17 17:33N 26°05' W 080°07'0 0.0
2015-May-17 16:33N 26°05' W 080°07'0 0.0
2015-May-17 15:33N 26°05' W 080°07'0 0.0
2015-May-17 14:33N 26°05' W 080°07'0 0.0
2015-May-17 13:33N 26°05' W 080°07'  

Dump ship's entire track history